createdAt,value
2023-02-22T00:01:50.985Z,10.73
2023-02-22T00:04:21.359Z,9.30
2023-02-22T00:06:49.676Z,11.02
2023-02-22T00:09:21.449Z,11.60
2023-02-22T00:11:48.965Z,11.85
2023-02-22T00:14:15.818Z,12.57
2023-02-22T00:16:42.461Z,11.00
2023-02-22T00:19:10.667Z,11.55
2023-02-22T00:21:37.440Z,13.05
2023-02-22T00:24:22.907Z,11.60
2023-02-22T00:26:57.270Z,11.40
2023-02-22T00:29:24.906Z,10.10
2023-02-22T00:31:51.584Z,10.60
2023-02-22T00:34:18.153Z,12.23
2023-02-22T00:36:49.113Z,12.05
2023-02-22T00:39:16.336Z,11.73
2023-02-22T00:41:43.400Z,7.25
2023-02-22T00:44:10.091Z,8.23
2023-02-22T00:46:36.661Z,7.05
2023-02-22T00:49:03.720Z,7.22
2023-02-22T00:51:30.335Z,6.57
2023-02-22T00:53:56.922Z,5.13
2023-02-22T00:56:23.870Z,5.65
2023-02-22T00:58:50.417Z,5.95
2023-02-22T01:01:17.358Z,8.63
2023-02-22T01:03:44.126Z,4.60
2023-02-22T01:06:11.070Z,5.88
2023-02-22T01:08:37.635Z,9.35
2023-02-22T01:11:04.567Z,7.70
2023-02-22T01:13:31.102Z,7.07
2023-02-22T01:15:57.871Z,7.60
2023-02-22T01:18:26.133Z,8.80
2023-02-22T01:20:52.862Z,7.25
2023-02-22T01:23:20.012Z,8.57
2023-02-22T01:25:46.570Z,9.60
2023-02-22T01:28:13.910Z,8.38
2023-02-22T01:30:40.749Z,5.70
2023-02-22T01:33:07.972Z,5.32
2023-02-22T01:35:37.020Z,8.32
2023-02-22T01:38:03.584Z,8.45
2023-02-22T01:40:35.998Z,9.40
2023-02-22T01:43:25.032Z,6.18
2023-02-22T01:46:00.858Z,6.35
2023-02-22T01:48:49.444Z,6.50
2023-02-22T01:51:19.693Z,8.48
2023-02-22T01:54:04.233Z,11.35
2023-02-22T01:56:34.476Z,6.43
2023-02-22T01:59:08.170Z,5.70
2023-02-22T02:01:36.528Z,7.47
2023-02-22T02:04:07.800Z,6.47
2023-02-22T02:06:35.988Z,7.70
2023-02-22T02:09:02.492Z,8.50
2023-02-22T02:11:29.689Z,7.95
2023-02-22T02:13:59.802Z,7.65
2023-02-22T02:16:37.262Z,8.05
2023-02-22T02:19:05.564Z,5.82
2023-02-22T02:21:51.806Z,6.85
2023-02-22T02:24:45.554Z,8.38
2023-02-22T02:27:19.392Z,7.28
2023-02-22T02:30:29.499Z,9.75
2023-02-22T02:33:22.454Z,10.00
2023-02-22T02:35:54.245Z,8.68
2023-02-22T02:38:32.272Z,6.57
2023-02-22T02:41:04.075Z,8.18
2023-02-22T02:43:40.509Z,9.65
2023-02-22T02:46:23.932Z,9.00
2023-02-22T02:48:56.862Z,12.82
2023-02-22T02:51:28.113Z,9.85
2023-02-22T02:53:55.889Z,5.13
2023-02-22T02:56:23.553Z,8.27
2023-02-22T02:58:53.436Z,8.85
2023-02-22T03:01:43.274Z,9.05
2023-02-22T03:04:28.169Z,7.47
2023-02-22T03:07:09.857Z,6.82
2023-02-22T03:09:59.583Z,9.38
2023-02-22T03:12:44.142Z,4.30
2023-02-22T03:15:14.033Z,7.55
2023-02-22T03:17:51.086Z,6.75
2023-02-22T03:20:23.804Z,5.28
2023-02-22T03:23:07.783Z,7.10
2023-02-22T03:25:40.433Z,6.13
2023-02-22T03:28:14.726Z,6.45
2023-02-22T03:30:48.572Z,6.82
2023-02-22T03:33:20.896Z,7.80
2023-02-22T03:35:57.012Z,8.50
2023-02-22T03:38:28.875Z,11.48
2023-02-22T03:40:59.448Z,8.23
2023-02-22T03:43:32.896Z,8.07
2023-02-22T03:46:00.819Z,11.20
2023-02-22T03:48:46.180Z,9.63
2023-02-22T03:53:50.540Z,16.95
2023-02-22T03:56:24.523Z,6.90
2023-02-22T03:58:54.475Z,7.20
2023-02-22T04:01:28.713Z,10.02
2023-02-22T04:03:55.279Z,8.20
2023-02-22T04:06:21.990Z,6.00
2023-02-22T04:08:48.492Z,5.75
2023-02-22T04:11:15.230Z,10.13
2023-02-22T04:13:41.938Z,6.20
2023-02-22T04:16:08.594Z,8.00
2023-02-22T04:18:35.250Z,6.60
2023-02-22T04:21:02.644Z,7.63
2023-02-22T04:23:30.744Z,7.63
2023-02-22T04:25:57.537Z,6.88
2023-02-22T04:28:24.031Z,9.73
2023-02-22T04:30:50.650Z,7.82
2023-02-22T04:33:17.379Z,7.72
2023-02-22T04:35:44.096Z,11.18
2023-02-22T04:38:10.754Z,9.18
2023-02-22T04:40:37.511Z,9.68
2023-02-22T04:43:04.110Z,9.05
2023-02-22T04:45:31.087Z,9.77
2023-02-22T04:47:57.835Z,8.75
2023-02-22T04:50:24.636Z,10.88
2023-02-22T04:52:51.303Z,9.90
2023-02-22T04:55:17.933Z,14.63
2023-02-22T04:57:44.497Z,9.05
2023-02-22T05:00:11.633Z,9.18
2023-02-22T05:02:40.134Z,9.48
2023-02-22T05:05:07.306Z,10.43
2023-02-22T05:07:33.910Z,11.75
2023-02-22T05:10:02.976Z,10.85
2023-02-22T05:12:29.513Z,9.63
2023-02-22T05:14:57.540Z,12.48
2023-02-22T05:17:24.172Z,10.93
2023-02-22T05:19:50.997Z,8.63
2023-02-22T05:22:18.015Z,8.68
2023-02-22T05:24:47.211Z,8.63
2023-02-22T05:27:13.850Z,7.57
2023-02-22T05:29:40.736Z,11.77
2023-02-22T05:32:07.358Z,9.40
2023-02-22T05:34:33.989Z,12.70
2023-02-22T05:37:00.583Z,17.40
2023-02-22T05:39:27.152Z,9.85
2023-02-22T05:41:53.756Z,9.38
2023-02-22T05:44:20.353Z,12.40
2023-02-22T05:46:47.065Z,12.43
2023-02-22T05:49:13.723Z,13.73
2023-02-22T05:51:40.330Z,15.70
2023-02-22T05:54:07.108Z,13.32
2023-02-22T05:56:33.830Z,12.70
2023-02-22T05:59:00.464Z,15.93
2023-02-22T06:01:27.268Z,12.40
2023-02-22T06:03:54.143Z,12.02
2023-02-22T06:06:22.432Z,14.02
2023-02-22T06:08:49.362Z,16.17
2023-02-22T06:11:16.329Z,15.57
2023-02-22T06:13:48.873Z,15.85
2023-02-22T06:16:15.435Z,17.58
2023-02-22T06:18:41.960Z,17.17
2023-02-22T06:21:09.005Z,14.00
2023-02-22T06:23:35.641Z,16.42
2023-02-22T06:26:02.194Z,23.10
2023-02-22T06:28:28.725Z,18.17
2023-02-22T06:30:55.294Z,16.42
2023-02-22T06:33:21.947Z,16.67
2023-02-22T06:35:48.485Z,19.85
2023-02-22T06:38:23.281Z,16.90
2023-02-22T06:40:49.910Z,14.98
2023-02-22T06:43:16.941Z,15.52
2023-02-22T06:45:43.886Z,16.95
2023-02-22T06:48:10.510Z,17.25
2023-02-22T06:50:37.129Z,15.88
2023-02-22T06:53:04.059Z,18.52
2023-02-22T06:55:33.729Z,18.30
2023-02-22T06:58:00.660Z,15.40
2023-02-22T07:00:29.125Z,17.65
2023-02-22T07:02:56.654Z,16.60
2023-02-22T07:05:24.621Z,19.33
2023-02-22T07:07:53.275Z,17.73
2023-02-22T07:10:26.349Z,20.85
2023-02-22T07:12:53.516Z,19.85
2023-02-22T07:15:23.784Z,20.98
2023-02-22T07:17:51.867Z,22.40
2023-02-22T07:20:20.779Z,18.30
2023-02-22T07:22:49.013Z,18.63
2023-02-22T07:25:18.866Z,18.60
2023-02-22T07:27:46.412Z,22.60
2023-02-22T07:30:16.400Z,20.60
2023-02-22T07:32:44.056Z,22.55
2023-02-22T07:35:16.902Z,19.75
2023-02-22T07:37:44.201Z,17.52
2023-02-22T07:40:11.636Z,21.77
2023-02-22T07:43:01.317Z,18.52
2023-02-22T07:45:35.885Z,18.35
2023-02-22T07:48:04.624Z,21.52
2023-02-22T07:50:32.953Z,20.45
2023-02-22T07:53:04.237Z,18.63
2023-02-22T07:55:32.664Z,17.15
2023-02-22T07:58:01.397Z,17.98
2023-02-22T08:00:36.636Z,16.55
2023-02-22T08:03:06.271Z,17.40
2023-02-22T08:05:36.172Z,15.38
2023-02-22T08:08:03.773Z,19.45
2023-02-22T08:10:31.026Z,18.02
2023-02-22T08:12:57.715Z,21.13
2023-02-22T08:15:35.918Z,19.23
2023-02-22T08:18:04.737Z,16.80
2023-02-22T08:20:31.911Z,19.15
2023-02-22T08:23:00.813Z,17.73
2023-02-22T08:25:28.736Z,14.32
2023-02-22T08:28:04.793Z,13.52
2023-02-22T08:30:32.847Z,16.05
2023-02-22T08:33:00.006Z,15.98
2023-02-22T08:35:27.694Z,15.80
2023-02-22T08:38:01.881Z,13.20
2023-02-22T08:40:31.372Z,16.50
2023-02-22T08:42:58.316Z,15.25
2023-02-22T08:45:25.233Z,14.70
2023-02-22T08:47:51.929Z,15.23
2023-02-22T08:50:25.305Z,15.32
2023-02-22T08:52:54.832Z,17.13
2023-02-22T08:55:23.333Z,15.57
2023-02-22T08:57:53.558Z,18.42
2023-02-22T09:00:27.475Z,19.55
2023-02-22T09:02:54.071Z,15.10
2023-02-22T09:05:21.426Z,18.50
2023-02-22T09:07:48.020Z,15.38
2023-02-22T09:10:17.778Z,12.70
2023-02-22T09:12:44.430Z,15.60
2023-02-22T09:15:12.534Z,12.02
2023-02-22T09:17:39.492Z,14.70
2023-02-22T09:20:08.121Z,12.05
2023-02-22T09:22:34.815Z,10.48
2023-02-22T09:25:11.454Z,10.82
2023-02-22T09:27:43.734Z,14.23
2023-02-22T09:30:23.743Z,14.13
2023-02-22T09:32:52.338Z,11.93
2023-02-22T09:35:19.954Z,12.60
2023-02-22T09:37:47.997Z,11.02
2023-02-22T09:40:24.872Z,9.38
2023-02-22T09:43:04.032Z,10.45
2023-02-22T09:45:48.429Z,10.18
2023-02-22T09:48:21.976Z,6.88
2023-02-22T09:50:52.458Z,10.50
2023-02-22T09:53:42.423Z,7.82
2023-02-22T09:56:12.814Z,7.25
2023-02-22T09:58:46.353Z,9.57
2023-02-22T10:01:43.469Z,9.50
2023-02-22T10:04:19.107Z,7.97
2023-02-22T10:07:14.309Z,6.57
2023-02-22T10:09:43.549Z,11.25
2023-02-22T10:12:44.130Z,11.38
2023-02-22T10:15:13.689Z,11.57
2023-02-22T10:17:52.517Z,13.90
2023-02-22T10:20:32.947Z,10.35
2023-02-22T10:23:19.162Z,11.43
2023-02-22T10:25:54.315Z,14.93
2023-02-22T10:28:32.186Z,13.57
2023-02-22T10:31:04.375Z,10.32
2023-02-22T10:33:39.907Z,16.65
2023-02-22T10:36:15.146Z,9.85
2023-02-22T10:38:52.250Z,11.05
2023-02-22T10:41:28.587Z,12.70
2023-02-22T10:43:56.135Z,9.50
2023-02-22T10:46:25.343Z,11.45
2023-02-22T10:48:55.315Z,11.73
2023-02-22T10:51:22.061Z,16.08
2023-02-22T10:54:07.273Z,12.85
2023-02-22T10:59:04.503Z,8.13
2023-02-22T11:01:31.038Z,11.00
2023-02-22T11:04:25.160Z,6.30
2023-02-22T11:07:01.009Z,11.48
2023-02-22T11:09:29.087Z,8.25
2023-02-22T11:12:17.640Z,5.78
2023-02-22T11:14:44.187Z,8.77
2023-02-22T11:17:14.220Z,5.35
2023-02-22T11:19:48.127Z,5.75
2023-02-22T11:22:22.726Z,8.00
2023-02-22T11:24:57.617Z,9.10
2023-02-22T11:27:47.639Z,7.25
2023-02-22T11:30:27.533Z,5.93
2023-02-22T11:33:15.455Z,7.15
2023-02-22T11:36:04.881Z,6.95
2023-02-22T11:38:55.275Z,6.13
2023-02-22T11:41:30.540Z,6.65
2023-02-22T11:44:26.586Z,5.93
2023-02-22T11:46:56.391Z,8.07
2023-02-22T11:49:35.375Z,5.85
2023-02-22T11:52:20.502Z,5.82
2023-02-22T11:57:22.105Z,3.10
2023-02-22T12:00:24.732Z,5.53
2023-02-22T12:03:33.060Z,4.32
2023-02-22T12:06:30.836Z,4.95
2023-02-22T12:09:10.423Z,5.45
2023-02-22T12:11:50.944Z,4.32
2023-02-22T12:14:44.159Z,12.50
2023-02-22T12:17:23.498Z,4.47
2023-02-22T12:19:54.927Z,4.50
2023-02-22T12:22:27.167Z,10.90
2023-02-22T12:25:09.532Z,6.45
2023-02-22T12:27:52.133Z,9.00
2023-02-22T12:30:24.781Z,7.43
2023-02-22T12:32:54.210Z,6.57
2023-02-22T12:35:27.547Z,9.82
2023-02-22T12:38:09.076Z,7.90
2023-02-22T12:41:04.065Z,8.48
2023-02-22T12:43:39.051Z,9.80
2023-02-22T12:46:12.350Z,11.60
2023-02-22T12:48:57.173Z,13.50
2023-02-22T12:51:53.869Z,9.57
2023-02-22T12:55:02.413Z,6.57
2023-02-22T12:57:34.677Z,10.75
2023-02-22T13:00:20.271Z,18.48
2023-02-22T13:02:58.460Z,8.57
2023-02-22T13:05:25.318Z,7.50
2023-02-22T13:08:20.313Z,9.95
2023-02-22T13:10:59.213Z,9.82
2023-02-22T13:13:37.957Z,6.72
2023-02-22T13:16:18.514Z,11.82
2023-02-22T13:19:20.624Z,9.65
2023-02-22T13:21:59.785Z,9.07
2023-02-22T13:24:32.911Z,10.77
2023-02-22T13:27:09.968Z,29.98
2023-02-22T13:29:43.852Z,8.43
2023-02-22T13:32:22.655Z,6.00
2023-02-22T13:34:52.374Z,8.40
2023-02-22T13:37:37.446Z,4.82
2023-02-22T13:40:33.137Z,9.93
2023-02-22T13:43:22.770Z,7.05
2023-02-22T13:45:59.758Z,8.07
2023-02-22T13:48:28.009Z,7.72
2023-02-22T13:51:06.991Z,7.80
2023-02-22T13:53:54.384Z,11.40
2023-02-22T13:56:23.648Z,7.55
2023-02-22T13:58:57.035Z,8.15
2023-02-22T14:01:41.948Z,9.00
2023-02-22T14:04:28.630Z,10.80
2023-02-22T14:07:00.923Z,4.68
2023-02-22T14:09:45.739Z,6.80
2023-02-22T14:12:30.792Z,5.75
2023-02-22T14:15:28.288Z,15.07
2023-02-22T14:18:02.918Z,6.28
2023-02-22T14:20:35.266Z,8.32
2023-02-22T14:23:30.017Z,7.55
2023-02-22T14:26:08.955Z,11.07
2023-02-22T14:28:40.952Z,11.38
2023-02-22T14:31:25.750Z,37.90
2023-02-22T14:34:03.174Z,13.63
2023-02-22T14:36:41.735Z,11.95
2023-02-22T14:39:19.975Z,20.20
2023-02-22T14:42:10.505Z,14.30
2023-02-22T14:44:59.866Z,6.93
2023-02-22T14:47:43.880Z,9.23
2023-02-22T14:50:25.338Z,7.22
2023-02-22T14:53:06.954Z,7.65
2023-02-22T14:55:40.937Z,7.55
2023-02-22T14:58:22.287Z,8.82
2023-02-22T15:00:53.062Z,10.48
2023-02-22T15:03:33.328Z,5.78
2023-02-22T15:06:39.413Z,8.23
2023-02-22T15:09:29.777Z,11.85
2023-02-22T15:12:03.142Z,7.20
2023-02-22T15:14:41.164Z,11.07
2023-02-22T15:17:13.668Z,11.85
2023-02-22T15:19:42.319Z,10.18
2023-02-22T15:22:21.918Z,10.48
2023-02-22T15:24:58.927Z,10.13
2023-02-22T15:27:26.403Z,10.63
2023-02-22T15:29:59.491Z,8.20
2023-02-22T15:32:31.523Z,12.30
2023-02-22T15:35:19.175Z,9.25
2023-02-22T15:37:47.393Z,10.85
2023-02-22T15:40:20.996Z,6.80
2023-02-22T15:42:58.520Z,12.80
2023-02-22T15:45:26.127Z,7.85
2023-02-22T15:47:54.991Z,8.75
2023-02-22T15:50:33.759Z,7.65
2023-02-22T15:53:24.067Z,6.45
2023-02-22T15:55:58.217Z,11.45
2023-02-22T15:58:29.239Z,8.52
2023-02-22T16:01:05.362Z,11.18
2023-02-22T16:03:46.355Z,9.48
2023-02-22T16:06:28.636Z,13.25
2023-02-22T16:08:58.832Z,15.02
2023-02-22T16:11:34.339Z,14.55
2023-02-22T16:14:06.105Z,13.25
2023-02-22T16:16:41.813Z,11.63
2023-02-22T16:19:17.745Z,8.35
2023-02-22T16:22:02.951Z,10.98
2023-02-22T16:27:12.768Z,11.70
2023-02-22T16:29:40.501Z,13.60
2023-02-22T16:32:07.566Z,11.75
2023-02-22T16:34:34.846Z,9.52
2023-02-22T16:37:01.580Z,14.38
2023-02-22T16:39:30.695Z,12.52
2023-02-22T16:41:59.976Z,10.95
2023-02-22T16:44:28.113Z,11.82
2023-02-22T16:46:59.748Z,11.00
2023-02-22T16:49:26.998Z,12.48
2023-02-22T16:51:56.210Z,12.00
2023-02-22T16:54:29.736Z,10.77
2023-02-22T16:57:00.449Z,12.90
2023-02-22T16:59:26.976Z,9.55
2023-02-22T17:01:53.780Z,13.35
2023-02-22T17:04:24.279Z,14.30
2023-02-22T17:06:50.877Z,10.05
2023-02-22T17:09:20.030Z,10.68
2023-02-22T17:11:50.205Z,13.77
2023-02-22T17:14:20.319Z,13.55
2023-02-22T17:16:47.254Z,13.48
2023-02-22T17:19:19.551Z,13.32
2023-02-22T17:21:46.314Z,13.60
2023-02-22T17:24:16.379Z,15.13
2023-02-22T17:26:43.240Z,15.13
2023-02-22T17:29:09.837Z,16.85
2023-02-22T17:31:36.847Z,26.48
2023-02-22T17:34:05.607Z,14.05
2023-02-22T17:36:34.079Z,20.10
2023-02-22T17:39:03.150Z,17.23
2023-02-22T17:41:29.730Z,16.48
2023-02-22T17:44:00.987Z,14.52
2023-02-22T17:46:27.673Z,18.77
2023-02-22T17:48:54.326Z,16.00
2023-02-22T17:51:23.345Z,16.00
2023-02-22T17:53:51.319Z,15.95
2023-02-22T17:56:19.850Z,16.50
2023-02-22T17:58:53.132Z,16.50
2023-02-22T18:01:27.241Z,18.17
2023-02-22T18:03:56.186Z,16.67
2023-02-22T18:06:27.352Z,23.33
2023-02-22T18:08:56.648Z,19.45
2023-02-22T18:11:26.435Z,16.10
2023-02-22T18:13:55.461Z,20.23
2023-02-22T18:16:22.603Z,18.60
2023-02-22T18:18:49.757Z,20.80
2023-02-22T18:21:16.473Z,25.02
2023-02-22T18:23:44.996Z,19.45
2023-02-22T18:26:20.482Z,23.27
2023-02-22T18:28:50.427Z,23.95
2023-02-22T18:31:19.498Z,23.23
2023-02-22T18:33:48.971Z,20.77
2023-02-22T18:36:17.894Z,21.35
2023-02-22T18:38:44.959Z,20.30
2023-02-22T18:41:16.591Z,23.38
2023-02-22T18:43:43.794Z,26.05
2023-02-22T18:46:11.831Z,25.38
2023-02-22T18:48:39.393Z,23.25
2023-02-22T18:51:11.085Z,26.38
2023-02-22T18:53:40.907Z,22.52
2023-02-22T18:56:10.621Z,27.73
2023-02-22T18:58:38.935Z,20.67
2023-02-22T19:01:07.238Z,25.92
2023-02-22T19:03:38.218Z,25.65
2023-02-22T19:06:08.843Z,22.83
2023-02-22T19:08:40.207Z,20.15
2023-02-22T19:11:09.444Z,24.15
2023-02-22T19:13:37.130Z,20.38
2023-02-22T19:16:05.214Z,23.10
2023-02-22T19:18:31.970Z,25.30
2023-02-22T19:21:00.795Z,22.27
2023-02-22T19:23:29.525Z,23.45
2023-02-22T19:25:56.918Z,19.13
2023-02-22T19:28:28.217Z,19.77
2023-02-22T19:30:54.873Z,22.92
2023-02-22T19:33:26.091Z,21.70
2023-02-22T19:35:52.672Z,24.00
2023-02-22T19:38:19.854Z,23.85
2023-02-22T19:40:46.721Z,27.35
2023-02-22T19:43:14.273Z,27.33
2023-02-22T19:45:41.050Z,22.17
2023-02-22T19:48:07.651Z,22.38
2023-02-22T19:50:35.258Z,22.33
2023-02-22T19:53:01.922Z,25.00
2023-02-22T19:55:32.380Z,22.73
2023-02-22T19:57:59.411Z,24.15
2023-02-22T20:00:27.167Z,25.30
2023-02-22T20:03:05.764Z,27.27
2023-02-22T20:05:33.936Z,21.08
2023-02-22T20:08:00.598Z,21.27
2023-02-22T20:10:27.269Z,21.80
2023-02-22T20:12:53.851Z,26.95
2023-02-22T20:15:23.946Z,23.10
2023-02-22T20:17:51.361Z,25.83
2023-02-22T20:20:18.459Z,26.60
2023-02-22T20:22:45.688Z,28.88
2023-02-22T20:25:13.774Z,28.80
2023-02-22T20:27:40.613Z,27.67
2023-02-22T20:30:09.957Z,23.90
2023-02-22T20:32:37.927Z,21.42
2023-02-22T20:35:06.058Z,23.60
2023-02-22T20:37:34.075Z,28.10
2023-02-22T20:40:00.707Z,21.15
2023-02-22T20:42:27.386Z,25.55
2023-02-22T20:44:54.518Z,24.42
2023-02-22T20:47:23.458Z,21.25
2023-02-22T20:49:50.129Z,21.70
2023-02-22T20:52:16.771Z,23.45
2023-02-22T20:54:45.986Z,27.38
2023-02-22T20:57:15.067Z,22.02
2023-02-22T20:59:43.871Z,24.13
2023-02-22T21:02:10.923Z,20.63
2023-02-22T21:04:39.087Z,25.15
2023-02-22T21:07:08.289Z,30.85
2023-02-22T21:09:35.004Z,25.40
2023-02-22T21:12:01.570Z,24.05
2023-02-22T21:14:29.563Z,24.70
2023-02-22T21:16:56.121Z,29.77
2023-02-22T21:19:25.770Z,22.08
2023-02-22T21:21:54.970Z,22.48
2023-02-22T21:24:23.631Z,27.70
2023-02-22T21:26:50.701Z,24.95
2023-02-22T21:29:17.299Z,24.58
2023-02-22T21:31:44.117Z,25.10
2023-02-22T21:34:13.769Z,25.52
2023-02-22T21:36:40.342Z,25.33
2023-02-22T21:39:18.133Z,23.85
2023-02-22T21:41:50.615Z,29.98
2023-02-22T21:44:17.875Z,28.95
2023-02-22T21:46:47.319Z,25.80
2023-02-22T21:49:13.867Z,25.60
2023-02-22T21:51:41.472Z,26.17
2023-02-22T21:54:10.380Z,26.52
2023-02-22T21:56:39.961Z,29.70
2023-02-22T21:59:18.867Z,25.85
2023-02-22T22:01:49.698Z,25.92
2023-02-22T22:04:21.131Z,21.65
2023-02-22T22:06:53.398Z,32.78
2023-02-22T22:09:23.555Z,24.27
2023-02-22T22:11:58.535Z,28.58
2023-02-22T22:16:56.032Z,28.45
2023-02-22T22:19:23.092Z,31.77
2023-02-22T22:21:53.343Z,34.22
2023-02-22T22:24:21.566Z,24.02
2023-02-22T22:26:54.813Z,27.33
2023-02-22T22:29:28.717Z,28.23
2023-02-22T22:31:55.579Z,29.92
2023-02-22T22:34:24.371Z,28.77
2023-02-22T22:36:51.074Z,30.92
2023-02-22T22:39:21.289Z,34.28
2023-02-22T22:41:48.530Z,27.27
2023-02-22T22:44:16.442Z,30.98
2023-02-22T22:46:43.882Z,33.40
2023-02-22T22:49:13.723Z,27.60
2023-02-22T22:51:47.497Z,27.13
2023-02-22T22:54:14.481Z,25.65
2023-02-22T22:56:41.122Z,26.88
2023-02-22T22:59:08.570Z,30.17
2023-02-22T23:01:44.944Z,31.10
2023-02-22T23:04:16.763Z,30.20
2023-02-22T23:06:45.744Z,23.90
2023-02-22T23:09:18.948Z,24.95
2023-02-22T23:12:08.743Z,26.15
2023-02-22T23:14:44.098Z,27.27
2023-02-22T23:17:15.408Z,22.63
2023-02-22T23:19:47.362Z,27.85
2023-02-22T23:22:14.502Z,23.70
2023-02-22T23:24:41.941Z,22.90
2023-02-22T23:27:12.397Z,23.88
2023-02-22T23:29:41.610Z,25.08
2023-02-22T23:32:09.034Z,23.10
2023-02-22T23:34:37.403Z,24.17
2023-02-22T23:37:04.024Z,24.27
2023-02-22T23:39:30.587Z,25.38
2023-02-22T23:42:26.828Z,29.02
2023-02-22T23:44:53.484Z,23.30
2023-02-22T23:47:20.014Z,25.15
2023-02-22T23:49:49.558Z,26.10
2023-02-22T23:52:24.112Z,25.35
2023-02-22T23:54:53.820Z,27.88
2023-02-22T23:57:20.694Z,24.63
2023-02-22T23:59:48.691Z,28.80
